Terminal Aerodrome Forecast
Issued by NWS Austin/San Antonio, TX

Home | Current Version | Previous Version | Text Only | Print | Product List | Glossary On
Versions: 1 2 3 4 5 6 7 8 9 10 11 12 13 14 15 16 17 18
000
FTUS44 KEWX 011727
TAFSAT
TAF
KSAT 011727Z 0118/0224 13007KT P6SM SCT025 BKN070 BKN250
     FM020900 16004KT P6SM OVC020
     FM021600 15005KT P6SM BKN050=

USA.gov is the U.S. government's official web portal to all federal, state and local government web resources and services.